createdAt,value
2023-03-19T00:00:52.133Z,0.00
2023-03-19T00:01:52.147Z,0.00
2023-03-19T00:02:52.263Z,0.00
2023-03-19T00:03:52.187Z,0.00
2023-03-19T00:04:52.085Z,0.00
2023-03-19T00:05:52.075Z,0.00
2023-03-19T00:06:52.073Z,0.00
2023-03-19T00:07:52.075Z,0.00
2023-03-19T00:08:52.061Z,0.00
2023-03-19T00:09:52.037Z,0.00
2023-03-19T00:10:52.047Z,0.00
2023-03-19T00:11:52.009Z,0.00
2023-03-19T00:12:52.018Z,0.00
2023-03-19T00:13:51.990Z,0.00
2023-03-19T00:14:51.983Z,0.00
2023-03-19T00:15:51.969Z,0.00
2023-03-19T00:16:52.070Z,0.00
2023-03-19T00:17:51.960Z,0.00
2023-03-19T00:18:51.942Z,0.00
2023-03-19T00:19:51.943Z,0.00
2023-03-19T00:20:51.918Z,0.00
2023-03-19T00:21:51.934Z,0.00
2023-03-19T00:22:51.916Z,0.00
2023-03-19T00:23:51.888Z,0.00
2023-03-19T00:24:51.883Z,0.00
2023-03-19T00:25:51.867Z,0.00
2023-03-19T00:26:51.856Z,0.00
2023-03-19T00:27:52.369Z,0.00
2023-03-19T00:28:51.847Z,0.00
2023-03-19T00:29:51.827Z,0.00
2023-03-19T00:30:51.843Z,0.00
2023-03-19T00:31:51.814Z,0.00
2023-03-19T00:32:51.847Z,0.00
2023-03-19T00:33:51.785Z,0.00
2023-03-19T00:34:51.781Z,0.00
2023-03-19T00:35:51.775Z,0.00
2023-03-19T00:36:51.749Z,0.00
2023-03-19T00:37:52.002Z,0.00
2023-03-19T00:38:51.740Z,0.00
2023-03-19T00:39:51.710Z,0.00
2023-03-19T00:40:51.799Z,0.00
2023-03-19T00:41:51.696Z,0.00
2023-03-19T00:42:51.712Z,0.00
2023-03-19T00:43:51.673Z,0.00
2023-03-19T00:44:51.669Z,0.00
2023-03-19T00:45:51.672Z,0.00
2023-03-19T00:46:51.645Z,0.00
2023-03-19T00:47:51.655Z,0.00
2023-03-19T00:48:51.625Z,0.00
2023-03-19T00:49:51.606Z,0.00
2023-03-19T00:50:51.615Z,0.00
2023-03-19T00:51:51.586Z,0.00
2023-03-19T00:52:51.598Z,0.00
2023-03-19T00:53:51.580Z,0.00
2023-03-19T00:54:51.559Z,0.00
2023-03-19T00:55:51.547Z,0.00
2023-03-19T00:56:51.536Z,0.00
2023-03-19T00:57:51.527Z,0.00
2023-03-19T00:58:51.530Z,0.00
2023-03-19T00:59:51.500Z,0.00
2023-03-19T01:00:51.488Z,0.00
2023-03-19T01:01:51.483Z,0.00
2023-03-19T01:02:51.478Z,0.00
2023-03-19T01:03:51.448Z,0.00
2023-03-19T01:04:51.447Z,0.00
2023-03-19T01:05:56.676Z,0.00
2023-03-19T01:06:51.427Z,0.00
2023-03-19T01:07:51.425Z,0.00
2023-03-19T01:08:51.402Z,0.00
2023-03-19T01:09:51.398Z,0.00
2023-03-19T01:10:51.378Z,0.00
2023-03-19T01:11:51.380Z,0.00
2023-03-19T01:12:51.366Z,0.00
2023-03-19T01:13:51.357Z,0.00
2023-03-19T01:14:51.340Z,0.00
2023-03-19T01:15:51.325Z,0.00
2023-03-19T01:16:51.336Z,0.00
2023-03-19T01:17:51.322Z,0.00
2023-03-19T01:18:51.290Z,0.00
2023-03-19T01:19:51.280Z,0.00
2023-03-19T01:20:51.274Z,0.00
2023-03-19T01:21:51.260Z,0.00
2023-03-19T01:22:51.262Z,0.00
2023-03-19T01:23:51.251Z,0.00
2023-03-19T01:24:51.240Z,0.00
2023-03-19T01:25:51.212Z,0.00
2023-03-19T01:26:51.200Z,0.00
2023-03-19T01:27:51.221Z,0.00
2023-03-19T01:28:51.182Z,0.00
2023-03-19T01:29:51.181Z,0.00
2023-03-19T01:30:51.197Z,0.00
2023-03-19T01:31:51.154Z,0.00
2023-03-19T01:32:51.197Z,0.00
2023-03-19T01:33:51.134Z,0.00
2023-03-19T01:34:51.115Z,0.00
2023-03-19T01:35:51.138Z,0.00
2023-03-19T01:36:51.100Z,0.00
2023-03-19T01:37:51.106Z,0.00
2023-03-19T01:38:51.077Z,0.00
2023-03-19T01:39:51.071Z,0.00
2023-03-19T01:40:51.067Z,0.00
2023-03-19T01:41:51.046Z,0.00
2023-03-19T01:42:51.046Z,0.00
2023-03-19T01:43:51.023Z,0.00
2023-03-19T01:44:51.006Z,0.00
2023-03-19T01:45:51.496Z,0.00
2023-03-19T01:46:51.059Z,0.00
2023-03-19T01:47:50.994Z,0.00
2023-03-19T01:48:51.003Z,0.00
2023-03-19T01:49:50.958Z,0.00
2023-03-19T01:50:50.950Z,0.00
2023-03-19T01:51:50.930Z,0.00
2023-03-19T01:52:50.929Z,0.00
2023-03-19T01:53:50.910Z,0.00
2023-03-19T01:54:50.902Z,0.00
2023-03-19T01:55:50.913Z,0.00
2023-03-19T01:56:50.884Z,0.00
2023-03-19T01:57:50.887Z,0.00
2023-03-19T01:58:50.875Z,0.00
2023-03-19T01:59:50.861Z,0.00
2023-03-19T02:00:50.832Z,0.00
2023-03-19T02:01:50.842Z,0.00
2023-03-19T02:02:50.823Z,0.00
2023-03-19T02:03:50.808Z,0.00
2023-03-19T02:04:50.868Z,0.00
2023-03-19T02:05:50.787Z,0.00
2023-03-19T02:06:50.773Z,0.00
2023-03-19T02:07:50.780Z,0.00
2023-03-19T02:08:50.758Z,0.00
2023-03-19T02:09:50.746Z,0.00
2023-03-19T02:10:50.735Z,0.00
2023-03-19T02:11:50.715Z,0.00
2023-03-19T02:12:50.777Z,0.00
2023-03-19T02:13:50.699Z,0.00
2023-03-19T02:14:50.700Z,0.00
2023-03-19T02:15:50.693Z,0.00
2023-03-19T02:16:50.669Z,0.00
2023-03-19T02:17:50.667Z,0.00
2023-03-19T02:18:50.647Z,0.00
2023-03-19T02:19:50.641Z,0.00
2023-03-19T02:20:50.638Z,0.00
2023-03-19T02:21:50.624Z,0.00
2023-03-19T02:22:50.614Z,0.00
2023-03-19T02:23:50.602Z,0.00
2023-03-19T02:24:50.581Z,0.00
2023-03-19T02:25:50.571Z,0.00
2023-03-19T02:26:50.592Z,0.00
2023-03-19T02:27:50.575Z,0.00
2023-03-19T02:28:50.530Z,0.00
2023-03-19T02:29:50.530Z,0.00
2023-03-19T02:30:50.511Z,0.00
2023-03-19T02:31:50.502Z,0.00
2023-03-19T02:32:50.511Z,0.00
2023-03-19T02:33:50.483Z,0.00
2023-03-19T02:34:50.476Z,0.00
2023-03-19T02:35:50.505Z,0.00
2023-03-19T02:36:50.453Z,0.00
2023-03-19T02:37:50.456Z,0.00
2023-03-19T02:38:50.438Z,0.00
2023-03-19T02:39:50.421Z,0.00
2023-03-19T02:40:50.411Z,0.00
2023-03-19T02:41:50.404Z,0.00
2023-03-19T02:42:50.397Z,0.00
2023-03-19T02:43:50.390Z,0.00
2023-03-19T02:44:50.374Z,0.00
2023-03-19T02:45:50.365Z,0.00
2023-03-19T02:46:50.383Z,0.00
2023-03-19T02:47:50.361Z,0.00
2023-03-19T02:48:50.317Z,0.00
2023-03-19T02:49:50.316Z,0.00
2023-03-19T02:50:50.316Z,0.00
2023-03-19T02:51:50.299Z,0.00
2023-03-19T02:52:50.289Z,0.00
2023-03-19T02:53:50.270Z,0.00
2023-03-19T02:54:50.261Z,0.00
2023-03-19T02:55:50.249Z,0.00
2023-03-19T02:56:50.240Z,0.00
2023-03-19T02:57:50.241Z,0.00
2023-03-19T02:58:50.220Z,0.00
2023-03-19T02:59:50.211Z,0.00
2023-03-19T03:00:50.230Z,0.00
2023-03-19T03:01:50.218Z,0.00
2023-03-19T03:02:50.195Z,0.00
2023-03-19T03:03:50.175Z,0.00
2023-03-19T03:04:50.173Z,0.00
2023-03-19T03:05:50.150Z,0.00
2023-03-19T03:06:50.146Z,0.00
2023-03-19T03:07:50.145Z,0.00
2023-03-19T03:08:50.123Z,0.00
2023-03-19T03:09:50.119Z,0.00
2023-03-19T03:10:50.116Z,0.00
2023-03-19T03:11:50.109Z,0.00
2023-03-19T03:12:50.116Z,0.00
2023-03-19T03:13:50.073Z,0.00
2023-03-19T03:14:50.067Z,0.00
2023-03-19T03:15:50.044Z,0.00
2023-03-19T03:16:50.045Z,0.00
2023-03-19T03:17:50.040Z,0.00
2023-03-19T03:18:50.037Z,0.00
2023-03-19T03:19:50.045Z,0.00
2023-03-19T03:20:50.001Z,0.00
2023-03-19T03:21:49.994Z,0.00
2023-03-19T03:22:50.004Z,0.00
2023-03-19T03:23:49.977Z,0.00
2023-03-19T03:24:49.957Z,0.00
2023-03-19T03:25:49.949Z,0.00
2023-03-19T03:26:49.937Z,0.00
2023-03-19T03:27:49.933Z,0.00
2023-03-19T03:28:49.928Z,0.00
2023-03-19T03:29:49.917Z,0.00
2023-03-19T03:30:49.899Z,0.00
2023-03-19T03:31:49.933Z,0.00
2023-03-19T03:32:49.889Z,0.00
2023-03-19T03:33:49.873Z,0.00
2023-03-19T03:34:49.857Z,0.00
2023-03-19T03:35:49.869Z,0.00
2023-03-19T03:36:49.843Z,0.00
2023-03-19T03:37:49.816Z,0.00
2023-03-19T03:38:49.834Z,0.00
2023-03-19T03:39:49.795Z,0.00
2023-03-19T03:40:49.794Z,0.00
2023-03-19T03:41:49.775Z,0.00
2023-03-19T03:42:49.778Z,0.00
2023-03-19T03:43:49.768Z,0.00
2023-03-19T03:44:49.747Z,0.00
2023-03-19T03:45:49.812Z,0.00
2023-03-19T03:46:49.736Z,0.00
2023-03-19T03:47:49.718Z,0.00
2023-03-19T03:48:49.757Z,0.00
2023-03-19T03:49:49.694Z,0.00
2023-03-19T03:50:49.705Z,0.00
2023-03-19T03:51:49.692Z,0.00
2023-03-19T03:52:49.688Z,0.00
2023-03-19T03:53:49.681Z,0.00
2023-03-19T03:54:49.655Z,0.00
2023-03-19T03:55:49.632Z,0.00
2023-03-19T03:56:49.637Z,0.00
2023-03-19T03:57:49.603Z,0.00
2023-03-19T03:58:49.621Z,0.00
2023-03-19T03:59:49.601Z,0.00
2023-03-19T04:00:49.594Z,0.00
2023-03-19T04:01:49.634Z,0.00
2023-03-19T04:02:49.609Z,0.00
2023-03-19T04:03:49.589Z,0.00
2023-03-19T04:04:49.548Z,0.00
2023-03-19T04:05:49.527Z,0.00
2023-03-19T04:06:49.528Z,0.00
2023-03-19T04:07:49.507Z,0.00
2023-03-19T04:08:49.517Z,0.00
2023-03-19T04:09:49.491Z,0.00
2023-03-19T04:10:49.485Z,0.00
2023-03-19T04:11:51.482Z,0.00
2023-03-19T04:12:49.610Z,0.00
2023-03-19T04:13:49.464Z,0.00
2023-03-19T04:14:49.439Z,0.00
2023-03-19T04:15:49.429Z,0.00
2023-03-19T04:16:49.495Z,0.00
2023-03-19T04:17:49.412Z,0.00
2023-03-19T04:18:49.409Z,0.00
2023-03-19T04:19:49.388Z,0.00
2023-03-19T04:20:49.372Z,0.00
2023-03-19T04:21:49.362Z,0.00
2023-03-19T04:22:49.352Z,0.00
2023-03-19T04:23:49.353Z,0.00
2023-03-19T04:24:49.332Z,0.00
2023-03-19T04:25:49.313Z,0.00
2023-03-19T04:26:49.332Z,0.00
2023-03-19T04:27:49.294Z,0.00
2023-03-19T04:28:49.306Z,0.00
2023-03-19T04:29:49.276Z,0.00
2023-03-19T04:30:49.322Z,0.00
2023-03-19T04:31:49.268Z,0.00
2023-03-19T04:32:49.308Z,0.00
2023-03-19T04:33:49.278Z,0.00
2023-03-19T04:34:49.241Z,0.00
2023-03-19T04:35:49.293Z,0.00
2023-03-19T04:36:49.276Z,0.00
2023-03-19T04:37:49.215Z,0.00
2023-03-19T04:38:49.202Z,0.00
2023-03-19T04:39:49.242Z,0.00
2023-03-19T04:40:49.215Z,0.00
2023-03-19T04:41:49.149Z,0.00
2023-03-19T04:42:49.142Z,0.00
2023-03-19T04:43:49.147Z,0.00
2023-03-19T04:44:49.128Z,0.00
2023-03-19T04:45:49.144Z,0.00
2023-03-19T04:46:49.099Z,0.00
2023-03-19T04:47:49.090Z,0.00
2023-03-19T04:48:49.090Z,0.00
2023-03-19T04:49:49.084Z,0.00
2023-03-19T04:50:49.052Z,0.00
2023-03-19T04:51:49.041Z,0.00
2023-03-19T04:52:49.050Z,0.00
2023-03-19T04:53:49.030Z,0.00
2023-03-19T04:54:49.025Z,0.00
2023-03-19T04:55:49.008Z,0.00
2023-03-19T04:56:49.004Z,0.00
2023-03-19T04:57:48.988Z,0.00
2023-03-19T04:58:48.984Z,0.00
2023-03-19T04:59:48.968Z,0.00
2023-03-19T05:00:48.967Z,0.00
2023-03-19T05:01:48.987Z,0.00
2023-03-19T05:02:48.927Z,0.00
2023-03-19T05:03:48.984Z,0.00
2023-03-19T05:04:48.914Z,0.00
2023-03-19T05:05:48.895Z,0.00
2023-03-19T05:06:48.886Z,0.00
2023-03-19T05:07:48.875Z,0.00
2023-03-19T05:08:48.903Z,0.00
2023-03-19T05:09:48.853Z,0.00
2023-03-19T05:10:48.848Z,0.00
2023-03-19T05:11:48.828Z,0.00
2023-03-19T05:12:48.835Z,0.00
2023-03-19T05:13:48.836Z,0.00
2023-03-19T05:14:48.807Z,0.00
2023-03-19T05:15:48.842Z,0.00
2023-03-19T05:16:48.814Z,0.00
2023-03-19T05:17:48.784Z,0.00
2023-03-19T05:18:48.787Z,0.00
2023-03-19T05:19:48.786Z,0.00
2023-03-19T05:20:48.753Z,0.00
2023-03-19T05:21:48.769Z,0.00
2023-03-19T05:22:48.733Z,0.00
2023-03-19T05:23:48.722Z,0.00
2023-03-19T05:24:48.716Z,0.00
2023-03-19T05:25:48.732Z,0.00
2023-03-19T05:26:48.735Z,0.00
2023-03-19T05:27:48.664Z,0.00
2023-03-19T05:28:48.761Z,0.00
2023-03-19T05:29:48.683Z,0.00
2023-03-19T05:30:48.667Z,0.00
2023-03-19T05:31:48.662Z,0.00
2023-03-19T05:32:48.662Z,0.00
2023-03-19T05:33:48.616Z,0.00
2023-03-19T05:34:48.656Z,0.00
2023-03-19T05:35:48.601Z,0.00
2023-03-19T05:36:48.577Z,0.00
2023-03-19T05:37:48.570Z,0.00
2023-03-19T05:38:48.587Z,0.00
2023-03-19T05:39:48.583Z,0.00
2023-03-19T05:40:48.531Z,0.00
2023-03-19T05:41:48.524Z,0.00
2023-03-19T05:42:48.473Z,1.00
2023-03-19T05:43:48.450Z,1.00
2023-03-19T05:44:48.490Z,0.00
2023-03-19T05:45:48.483Z,0.00
2023-03-19T05:46:48.587Z,0.00
2023-03-19T05:47:48.463Z,0.00
2023-03-19T05:48:48.420Z,1.00
2023-03-19T05:49:48.406Z,1.00
2023-03-19T05:50:48.447Z,0.00
2023-03-19T05:51:48.431Z,0.00
2023-03-19T05:52:48.412Z,0.00
2023-03-19T05:53:48.404Z,0.00
2023-03-19T05:54:48.382Z,0.00
2023-03-19T05:55:48.384Z,0.00
2023-03-19T05:56:48.321Z,1.00
2023-03-19T05:57:48.320Z,1.00
2023-03-19T05:58:48.321Z,1.00
2023-03-19T05:59:48.335Z,0.00
2023-03-19T06:00:48.336Z,0.00
2023-03-19T06:01:48.408Z,0.00
2023-03-19T06:02:48.408Z,0.00
2023-03-19T06:03:48.303Z,0.00
2023-03-19T06:04:48.292Z,0.00
2023-03-19T06:05:48.274Z,0.00
2023-03-19T06:06:48.263Z,0.00
2023-03-19T06:07:48.206Z,2.00
2023-03-19T06:08:48.198Z,2.00
2023-03-19T06:09:48.175Z,3.00
2023-03-19T06:10:48.178Z,2.00
2023-03-19T06:11:48.155Z,1.00
2023-03-19T06:12:48.154Z,5.00
2023-03-19T06:13:48.140Z,2.00
2023-03-19T06:14:48.136Z,2.00
2023-03-19T06:15:48.141Z,2.00
2023-03-19T06:16:48.120Z,2.00
2023-03-19T06:17:48.096Z,3.00
2023-03-19T06:18:48.097Z,4.00
2023-03-19T06:19:48.084Z,5.00
2023-03-19T06:20:48.061Z,9.00
2023-03-19T06:21:48.050Z,8.00
2023-03-19T06:22:48.040Z,6.00
2023-03-19T06:23:48.055Z,7.00
2023-03-19T06:24:48.017Z,9.00
2023-03-19T06:25:48.013Z,9.00
2023-03-19T06:26:48.000Z,9.00
2023-03-19T06:27:48.000Z,10.00
2023-03-19T06:28:47.990Z,8.00
2023-03-19T06:29:47.963Z,6.00
2023-03-19T06:30:47.954Z,5.00
2023-03-19T06:31:48.006Z,7.00
2023-03-19T06:32:47.960Z,6.00
2023-03-19T06:33:47.935Z,6.00
2023-03-19T06:34:47.921Z,6.00
2023-03-19T06:35:47.980Z,5.00
2023-03-19T06:36:47.898Z,7.00
2023-03-19T06:37:47.895Z,8.00
2023-03-19T06:38:47.900Z,9.00
2023-03-19T06:39:47.861Z,9.00
2023-03-19T06:40:47.852Z,8.00
2023-03-19T06:41:47.868Z,6.00
2023-03-19T06:42:47.839Z,7.00
2023-03-19T06:43:47.838Z,7.00
2023-03-19T06:44:47.816Z,10.00
2023-03-19T06:45:47.822Z,8.00
2023-03-19T06:46:47.799Z,11.00
2023-03-19T06:47:47.774Z,9.00
2023-03-19T06:48:47.785Z,8.00
2023-03-19T06:49:47.761Z,6.00
2023-03-19T06:50:47.745Z,7.00
2023-03-19T06:51:47.737Z,8.00
2023-03-19T06:52:47.749Z,14.00
2023-03-19T06:53:47.736Z,10.00
2023-03-19T06:54:47.710Z,12.00
2023-03-19T06:55:47.704Z,16.00
2023-03-19T06:56:47.705Z,12.00
2023-03-19T06:57:47.679Z,14.00
2023-03-19T06:58:47.688Z,25.00
2023-03-19T06:59:47.650Z,21.00
2023-03-19T07:00:47.712Z,23.00
2023-03-19T07:01:47.638Z,18.00
2023-03-19T07:02:47.639Z,28.00
2023-03-19T07:03:47.669Z,36.00
2023-03-19T07:04:47.607Z,61.00
2023-03-19T07:05:47.589Z,17.00
2023-03-19T07:06:47.595Z,10.00
2023-03-19T07:07:47.570Z,16.00
2023-03-19T07:08:47.591Z,65.00
2023-03-19T07:09:47.555Z,24.00
2023-03-19T07:10:47.538Z,12.00
2023-03-19T07:11:47.524Z,50.00
2023-03-19T07:12:47.525Z,18.00
2023-03-19T07:13:47.520Z,12.00
2023-03-19T07:14:47.510Z,31.00
2023-03-19T07:15:47.485Z,20.00
2023-03-19T07:16:47.558Z,15.00
2023-03-19T07:17:47.465Z,25.00
2023-03-19T07:18:47.480Z,23.00
2023-03-19T07:19:47.450Z,28.00
2023-03-19T07:20:47.440Z,30.00
2023-03-19T07:21:47.426Z,38.00
2023-03-19T07:22:47.419Z,50.00
2023-03-19T07:23:47.420Z,17.00
2023-03-19T07:24:47.397Z,30.00
2023-03-19T07:25:47.407Z,33.00
2023-03-19T07:26:47.367Z,34.00
2023-03-19T07:27:47.373Z,35.00
2023-03-19T07:28:47.348Z,39.00
2023-03-19T07:29:47.362Z,23.00
2023-03-19T07:30:47.333Z,30.00
2023-03-19T07:31:47.405Z,37.00
2023-03-19T07:32:47.332Z,38.00
2023-03-19T07:33:47.312Z,25.00
2023-03-19T07:34:47.308Z,22.00
2023-03-19T07:35:47.327Z,25.00
2023-03-19T07:36:47.265Z,31.00
2023-03-19T07:37:47.272Z,25.00
2023-03-19T07:38:47.273Z,27.00
2023-03-19T07:39:47.254Z,30.00
2023-03-19T07:41:01.004Z,27.00
2023-03-19T07:41:48.216Z,25.00
2023-03-19T07:42:47.239Z,26.00
2023-03-19T07:43:47.213Z,26.00
2023-03-19T07:44:47.189Z,25.00
2023-03-19T07:45:47.258Z,27.00
2023-03-19T07:46:47.154Z,26.00
2023-03-19T07:47:49.863Z,25.00
2023-03-19T07:48:47.158Z,25.00
2023-03-19T07:49:47.141Z,27.00
2023-03-19T07:50:47.114Z,26.00
2023-03-19T07:51:47.117Z,30.00
2023-03-19T07:52:47.088Z,30.00
2023-03-19T07:53:47.084Z,28.00
2023-03-19T07:54:47.107Z,33.00
2023-03-19T07:55:47.066Z,34.00
2023-03-19T07:56:47.059Z,34.00
2023-03-19T07:57:47.043Z,41.00
2023-03-19T07:58:47.043Z,41.00
2023-03-19T07:59:47.040Z,39.00
2023-03-19T08:00:47.024Z,41.00
2023-03-19T08:01:46.999Z,38.00
2023-03-19T08:02:47.078Z,39.00
2023-03-19T08:03:46.977Z,36.00
2023-03-19T08:04:47.030Z,37.00
2023-03-19T08:05:46.971Z,38.00
2023-03-19T08:06:46.954Z,34.00
2023-03-19T08:07:46.938Z,37.00
2023-03-19T08:08:46.932Z,47.00
2023-03-19T08:09:46.930Z,46.00
2023-03-19T08:10:46.899Z,51.00
2023-03-19T08:11:46.898Z,44.00
2023-03-19T08:12:46.879Z,39.00
2023-03-19T08:13:46.869Z,45.00
2023-03-19T08:14:46.871Z,45.00
2023-03-19T08:15:46.869Z,47.00
2023-03-19T08:16:46.927Z,52.00
2023-03-19T08:17:46.844Z,43.00
2023-03-19T08:18:46.827Z,45.00
2023-03-19T08:19:46.845Z,43.00
2023-03-19T08:20:46.802Z,38.00
2023-03-19T08:21:46.801Z,38.00
2023-03-19T08:22:46.773Z,40.00
2023-03-19T08:23:46.776Z,40.00
2023-03-19T08:24:46.771Z,39.00
2023-03-19T08:25:46.745Z,44.00
2023-03-19T08:26:46.740Z,41.00
2023-03-19T08:27:46.746Z,44.00
2023-03-19T08:28:46.717Z,43.00
2023-03-19T08:29:46.724Z,37.00
2023-03-19T08:30:46.744Z,39.00
2023-03-19T08:31:46.682Z,42.00
2023-03-19T08:32:46.729Z,41.00
2023-03-19T08:33:46.656Z,44.00
2023-03-19T08:34:49.377Z,44.00
2023-03-19T08:35:46.700Z,46.00
2023-03-19T08:36:46.619Z,45.00
2023-03-19T08:37:46.620Z,46.00
2023-03-19T08:38:46.608Z,39.00
2023-03-19T08:39:46.609Z,32.00
2023-03-19T08:40:46.590Z,31.00
2023-03-19T08:41:46.574Z,35.00
2023-03-19T08:42:46.563Z,35.00
2023-03-19T08:43:46.570Z,34.00
2023-03-19T08:44:46.574Z,37.00
2023-03-19T08:45:46.546Z,34.00
2023-03-19T08:46:46.526Z,33.00
2023-03-19T08:47:46.509Z,34.00
2023-03-19T08:48:46.505Z,32.00
2023-03-19T08:49:46.503Z,33.00
2023-03-19T08:50:46.474Z,32.00
2023-03-19T08:51:46.474Z,33.00
2023-03-19T08:52:46.469Z,32.00
2023-03-19T08:53:46.447Z,32.00
2023-03-19T08:54:46.469Z,33.00
2023-03-19T08:55:46.424Z,37.00
2023-03-19T08:56:46.417Z,42.00
2023-03-19T08:57:46.424Z,37.00
2023-03-19T08:58:46.386Z,39.00
2023-03-19T08:59:46.403Z,38.00
2023-03-19T09:00:46.383Z,44.00
2023-03-19T09:01:46.438Z,38.00
2023-03-19T09:02:46.347Z,47.00
2023-03-19T09:03:46.347Z,56.00
2023-03-19T09:04:46.398Z,55.00
2023-03-19T09:05:46.316Z,51.00
2023-03-19T09:06:46.308Z,50.00
2023-03-19T09:07:46.310Z,50.00
2023-03-19T09:08:46.290Z,52.00
2023-03-19T09:09:46.299Z,51.00
2023-03-19T09:10:46.269Z,54.00
2023-03-19T09:11:46.260Z,56.00
2023-03-19T09:12:48.420Z,59.00
2023-03-19T09:13:46.264Z,55.00
2023-03-19T09:14:46.231Z,56.00
2023-03-19T09:15:46.251Z,51.00
2023-03-19T09:16:46.191Z,51.00
2023-03-19T09:17:46.200Z,54.00
2023-03-19T09:18:46.175Z,54.00
2023-03-19T09:19:46.183Z,48.00
2023-03-19T09:20:46.155Z,44.00
2023-03-19T09:21:46.146Z,43.00
2023-03-19T09:22:46.158Z,43.00
2023-03-19T09:23:46.128Z,43.00
2023-03-19T09:24:46.121Z,43.00
2023-03-19T09:25:46.112Z,41.00
2023-03-19T09:26:46.087Z,44.00
2023-03-19T09:27:46.095Z,41.00
2023-03-19T09:28:46.059Z,41.00
2023-03-19T09:29:46.078Z,47.00
2023-03-19T09:30:46.100Z,49.00
2023-03-19T09:31:46.050Z,52.00
2023-03-19T09:32:46.104Z,55.00
2023-03-19T09:33:46.020Z,60.00
2023-03-19T09:34:46.021Z,57.00
2023-03-19T09:35:46.019Z,59.00
2023-03-19T09:36:45.981Z,56.00
2023-03-19T09:37:45.984Z,63.00
2023-03-19T09:38:45.963Z,62.00
2023-03-19T09:39:45.965Z,62.00
2023-03-19T09:40:45.999Z,69.00
2023-03-19T09:41:45.933Z,85.00
2023-03-19T09:42:45.923Z,79.00
2023-03-19T09:43:45.962Z,78.00
2023-03-19T09:44:45.917Z,79.00
2023-03-19T09:45:45.914Z,78.00
2023-03-19T09:46:45.934Z,106.00
2023-03-19T09:47:45.884Z,82.00
2023-03-19T09:48:45.865Z,101.00
2023-03-19T09:49:45.867Z,95.00
2023-03-19T09:50:45.828Z,89.00
2023-03-19T09:51:45.837Z,82.00
2023-03-19T09:52:45.824Z,80.00
2023-03-19T09:53:45.809Z,78.00
2023-03-19T09:54:45.810Z,78.00
2023-03-19T09:55:45.784Z,87.00
2023-03-19T09:56:45.771Z,75.00
2023-03-19T09:57:45.764Z,97.00
2023-03-19T09:58:45.750Z,86.00
2023-03-19T09:59:45.762Z,93.00
2023-03-19T10:00:45.734Z,72.00
2023-03-19T10:01:45.751Z,74.00
2023-03-19T10:02:45.702Z,63.00
2023-03-19T10:03:45.731Z,56.00
2023-03-19T10:04:45.704Z,101.00
2023-03-19T10:05:45.684Z,79.00
2023-03-19T10:06:45.666Z,59.00
2023-03-19T10:07:45.654Z,89.00
2023-03-19T10:08:45.649Z,170.00
2023-03-19T10:09:45.654Z,99.00
2023-03-19T10:10:45.633Z,208.00
2023-03-19T10:11:45.621Z,139.00
2023-03-19T10:12:45.640Z,87.00
2023-03-19T10:13:45.611Z,166.00
2023-03-19T10:14:45.606Z,84.00
2023-03-19T10:15:45.579Z,119.00
2023-03-19T10:16:45.558Z,263.00
2023-03-19T10:17:45.575Z,407.00
2023-03-19T10:18:45.848Z,252.00
2023-03-19T10:19:45.698Z,294.00
2023-03-19T10:20:45.559Z,199.00
2023-03-19T10:21:45.540Z,246.00
2023-03-19T10:22:45.545Z,478.00
2023-03-19T10:23:45.498Z,411.00
2023-03-19T10:24:45.500Z,418.00
2023-03-19T10:25:45.515Z,476.00
2023-03-19T10:26:45.453Z,411.00
2023-03-19T10:27:45.444Z,505.00
2023-03-19T10:28:45.442Z,349.00
2023-03-19T10:29:45.447Z,472.00
2023-03-19T10:30:45.415Z,399.00
2023-03-19T10:31:45.633Z,466.00
2023-03-19T10:32:45.553Z,483.00
2023-03-19T10:33:45.386Z,421.00
2023-03-19T10:34:45.378Z,550.00
2023-03-19T10:35:45.432Z,468.00
2023-03-19T10:36:45.349Z,298.00
2023-03-19T10:37:45.353Z,439.00
2023-03-19T10:38:45.341Z,438.00
2023-03-19T10:39:45.337Z,458.00
2023-03-19T10:40:45.345Z,434.00
2023-03-19T10:41:45.326Z,418.00
2023-03-19T10:42:45.292Z,556.00
2023-03-19T10:43:45.282Z,294.00
2023-03-19T10:44:45.269Z,637.00
2023-03-19T10:45:45.299Z,423.00
2023-03-19T10:46:45.252Z,239.00
2023-03-19T10:47:45.236Z,166.00
2023-03-19T10:48:45.228Z,233.00
2023-03-19T10:49:45.216Z,94.00
2023-03-19T10:50:45.215Z,129.00
2023-03-19T10:51:45.207Z,166.00
2023-03-19T10:52:45.178Z,213.00
2023-03-19T10:53:45.185Z,127.00
2023-03-19T10:54:45.158Z,113.00
2023-03-19T10:55:45.183Z,81.00
2023-03-19T10:56:45.144Z,101.00
2023-03-19T10:57:45.139Z,85.00
2023-03-19T10:58:45.128Z,110.00
2023-03-19T10:59:45.111Z,67.00
2023-03-19T11:00:45.173Z,124.00
2023-03-19T11:01:45.091Z,150.00
2023-03-19T11:02:45.071Z,58.00
2023-03-19T11:03:45.091Z,78.00
2023-03-19T11:04:45.077Z,194.00
2023-03-19T11:05:45.087Z,28.00
2023-03-19T11:06:45.060Z,82.00
2023-03-19T11:07:45.044Z,35.00
2023-03-19T11:08:45.012Z,107.00
2023-03-19T11:09:45.002Z,29.00
2023-03-19T11:10:45.003Z,100.00
2023-03-19T11:11:44.980Z,29.00
2023-03-19T11:12:44.962Z,68.00
2023-03-19T11:13:44.961Z,46.00
2023-03-19T11:14:44.951Z,52.00
2023-03-19T11:15:44.979Z,109.00
2023-03-19T11:16:44.939Z,99.00
2023-03-19T11:17:44.923Z,40.00
2023-03-19T11:18:44.905Z,40.00
2023-03-19T11:19:44.905Z,46.00
2023-03-19T11:20:44.901Z,81.00
2023-03-19T11:21:44.876Z,74.00
2023-03-19T11:22:44.855Z,67.00
2023-03-19T11:23:44.854Z,80.00
2023-03-19T11:24:44.847Z,45.00
2023-03-19T11:25:44.885Z,33.00
2023-03-19T11:26:44.817Z,35.00
2023-03-19T11:27:44.837Z,64.00
2023-03-19T11:28:44.830Z,52.00
2023-03-19T11:29:44.804Z,34.00
2023-03-19T11:30:44.818Z,61.00
2023-03-19T11:31:44.865Z,35.00
2023-03-19T11:32:44.854Z,54.00
2023-03-19T11:33:44.757Z,67.00
2023-03-19T11:34:44.734Z,45.00
2023-03-19T11:35:44.878Z,24.00
2023-03-19T11:36:44.715Z,27.00
2023-03-19T11:37:44.713Z,33.00
2023-03-19T11:38:44.700Z,43.00
2023-03-19T11:39:44.733Z,36.00
2023-03-19T11:40:44.723Z,44.00
2023-03-19T11:41:44.762Z,77.00
2023-03-19T11:42:44.647Z,66.00
2023-03-19T11:43:44.637Z,96.00
2023-03-19T11:44:44.635Z,105.00
2023-03-19T11:45:44.671Z,86.00
2023-03-19T11:46:44.615Z,108.00
2023-03-19T11:47:44.596Z,84.00
2023-03-19T11:48:45.297Z,107.00
2023-03-19T11:49:44.570Z,115.00
2023-03-19T11:50:45.976Z,80.00
2023-03-19T11:51:44.549Z,184.00
2023-03-19T11:52:44.548Z,65.00
2023-03-19T11:53:44.531Z,132.00
2023-03-19T11:54:44.526Z,93.00
2023-03-19T11:55:44.522Z,114.00
2023-03-19T11:56:44.505Z,148.00
2023-03-19T11:57:44.499Z,18.00
2023-03-19T11:58:44.503Z,74.00
2023-03-19T11:59:44.469Z,190.00
2023-03-19T12:00:44.473Z,28.00
2023-03-19T12:01:44.444Z,16.00
2023-03-19T12:02:44.528Z,15.00
2023-03-19T12:03:44.505Z,11.00
2023-03-19T12:04:44.448Z,13.00
2023-03-19T12:05:44.426Z,53.00
2023-03-19T12:06:44.398Z,50.00
2023-03-19T12:07:44.377Z,63.00
2023-03-19T12:08:44.376Z,237.00
2023-03-19T12:09:44.359Z,50.00
2023-03-19T12:10:44.374Z,12.00
2023-03-19T12:11:44.340Z,20.00
2023-03-19T12:12:44.339Z,14.00
2023-03-19T12:13:44.312Z,41.00
2023-03-19T12:14:44.321Z,76.00
2023-03-19T12:15:44.335Z,136.00
2023-03-19T12:16:46.398Z,268.00
2023-03-19T12:17:44.274Z,39.00
2023-03-19T12:18:44.273Z,58.00
2023-03-19T12:19:44.253Z,79.00
2023-03-19T12:20:44.275Z,294.00
2023-03-19T12:21:44.234Z,47.00
2023-03-19T12:22:44.227Z,206.00
2023-03-19T12:23:44.225Z,112.00
2023-03-19T12:24:44.204Z,30.00
2023-03-19T12:25:44.217Z,32.00
2023-03-19T12:26:44.197Z,30.00
2023-03-19T12:27:44.176Z,29.00
2023-03-19T12:28:44.166Z,23.00
2023-03-19T12:29:44.149Z,16.00
2023-03-19T12:30:44.204Z,11.00
2023-03-19T12:31:44.128Z,11.00
2023-03-19T12:32:44.159Z,8.00
2023-03-19T12:33:44.112Z,7.00
2023-03-19T12:34:44.155Z,6.00
2023-03-19T12:35:44.121Z,4.00
2023-03-19T12:36:44.132Z,7.00
2023-03-19T12:37:44.068Z,3.00
2023-03-19T12:38:44.069Z,2.00
2023-03-19T12:39:44.058Z,3.00
2023-03-19T12:40:44.049Z,3.00
2023-03-19T12:41:44.047Z,3.00
2023-03-19T12:42:44.021Z,4.00
2023-03-19T12:43:43.991Z,4.00
2023-03-19T12:44:43.989Z,8.00
2023-03-19T12:45:43.987Z,6.00
2023-03-19T12:46:44.081Z,7.00
2023-03-19T12:47:43.953Z,7.00
2023-03-19T12:48:43.943Z,5.00
2023-03-19T12:49:43.922Z,5.00
2023-03-19T12:50:43.937Z,6.00
2023-03-19T12:51:43.909Z,6.00
2023-03-19T12:52:43.900Z,12.00
2023-03-19T12:53:43.893Z,8.00
2023-03-19T12:54:43.886Z,7.00
2023-03-19T12:55:43.874Z,8.00
2023-03-19T12:56:43.860Z,9.00
2023-03-19T12:57:43.849Z,10.00
2023-03-19T12:58:43.850Z,15.00
2023-03-19T12:59:43.826Z,19.00
2023-03-19T13:00:43.827Z,119.00
2023-03-19T13:01:43.940Z,19.00
2023-03-19T13:02:43.841Z,34.00
2023-03-19T13:03:43.781Z,33.00
2023-03-19T13:04:43.812Z,27.00